Time;durP1;ratioP1;P1;durP2;ratioP2;P2;SDS_P1;SDS_P2;PMS_P1;PMS_P2;Temp;Humidity;BMP_temperature;BMP_pressure;BME280_temperature;BME280_humidity;BME280_pressure;Samples;Min_cycle;Max_cycle;Signal;HPM_P1;HPM_P2
2022/03/05 00:00:45;;;;;;;27.95;17.85;;;3.80;75.10;;;;;;5112951;28;20464;-74
2022/03/05 00:03:12;;;;;;;25.85;16.73;;;3.80;75.30;;;;;;5111060;28;20066;-75
2022/03/05 00:05:38;;;;;;;29.70;17.55;;;3.80;75.40;;;;;;5112566;28;20398;-74
2022/03/05 00:08:04;;;;;;;26.42;16.45;;;3.80;75.50;;;;;;5112144;28;20028;-74
2022/03/05 00:10:30;;;;;;;29.10;17.38;;;3.80;75.40;;;;;;5112540;28;20099;-74
2022/03/05 00:12:57;;;;;;;28.50;17.80;;;3.80;75.60;;;;;;5111872;28;20483;-74
2022/03/05 00:15:26;;;;;;;27.15;18.13;;;3.80;75.80;;;;;;5112637;28;20020;-74
2022/03/05 00:17:53;;;;;;;31.73;18.60;;;3.80;75.80;;;;;;5112712;28;20384;-74
2022/03/05 00:20:19;;;;;;;28.05;17.67;;;3.80;75.90;;;;;;5112875;28;20361;-74
2022/03/05 00:22:46;;;;;;;31.33;18.35;;;3.80;76.20;;;;;;5112722;28;20114;-74
2022/03/05 00:25:12;;;;;;;32.45;19.25;;;3.70;76.20;;;;;;5112128;28;20019;-74
2022/03/05 00:27:38;;;;;;;30.27;18.90;;;3.70;76.60;;;;;;5112549;28;20034;-74
2022/03/05 00:30:04;;;;;;;29.13;19.13;;;3.70;76.70;;;;;;5112034;28;20027;-74
2022/03/05 00:32:30;;;;;;;30.63;18.52;;;3.70;77.00;;;;;;5112641;28;20110;-74
2022/03/05 00:34:56;;;;;;;28.95;17.88;;;3.70;77.10;;;;;;5112020;28;20540;-73
2022/03/05 00:37:22;;;;;;;28.00;17.92;;;3.70;77.20;;;;;;5112699;28;20460;-74
2022/03/05 00:39:47;;;;;;;33.50;19.38;;;3.70;77.00;;;;;;5112536;28;20465;-74
2022/03/05 00:42:13;;;;;;;28.73;17.50;;;3.70;77.10;;;;;;5112285;28;20612;-73
2022/03/05 00:44:39;;;;;;;27.75;17.88;;;3.70;77.20;;;;;;5112649;28;20480;-74
2022/03/05 00:47:05;;;;;;;31.63;18.35;;;3.70;77.20;;;;;;5110814;28;20043;-73
2022/03/05 00:49:31;;;;;;;27.98;18.80;;;3.70;77.30;;;;;;5112468;28;20543;-73
2022/03/05 00:51:57;;;;;;;27.98;18.48;;;3.70;77.50;;;;;;5112251;28;20031;-72
2022/03/05 00:54:22;;;;;;;28.35;18.52;;;3.70;77.40;;;;;;5116432;28;21752;-73
2022/03/05 00:56:48;;;;;;;32.60;19.95;;;3.70;77.20;;;;;;5116523;28;20031;-73
2022/03/05 00:59:14;;;;;;;32.65;19.77;;;3.70;77.20;;;;;;5115521;28;20019;-74
2022/03/05 01:01:40;;;;;;;31.25;19.52;;;3.70;77.20;;;;;;5115976;28;20114;-73
2022/03/05 01:04:06;;;;;;;32.00;20.55;;;3.70;77.10;;;;;;5115623;28;20039;-73
2022/03/05 01:06:32;;;;;;;28.88;19.58;;;3.60;77.20;;;;;;5115837;28;20027;-73
2022/03/05 01:09:00;;;;;;;35.22;19.20;;;3.60;77.40;;;;;;5115503;28;20035;-73
2022/03/05 01:11:25;;;;;;;32.80;19.73;;;3.60;77.50;;;;;;5115853;28;20038;-73
2022/03/05 01:13:51;;;;;;;32.22;19.98;;;3.70;77.60;;;;;;5116149;28;20027;-73
2022/03/05 01:16:17;;;;;;;28.80;18.75;;;3.70;77.70;;;;;;5115407;28;20081;-73
2022/03/05 01:18:43;;;;;;;31.58;20.55;;;3.70;77.60;;;;;;5115903;28;20108;-73
2022/03/05 01:21:08;;;;;;;34.72;20.58;;;3.60;78.20;;;;;;5115340;28;20035;-73
2022/03/05 01:23:34;;;;;;;32.88;19.95;;;3.60;77.80;;;;;;5115909;28;20052;-73
2022/03/05 01:26:00;;;;;;;31.70;20.23;;;3.60;78.00;;;;;;5113536;28;20059;-75
2022/03/05 01:28:25;;;;;;;32.80;20.10;;;3.70;77.90;;;;;;5115682;28;20027;-74
2022/03/05 01:30:51;;;;;;;32.95;20.73;;;3.70;77.70;;;;;;5116120;28;20512;-74
2022/03/05 01:33:17;;;;;;;34.97;20.63;;;3.70;77.80;;;;;;5115365;28;20039;-74
2022/03/05 01:35:46;;;;;;;34.25;20.55;;;3.70;77.90;;;;;;5115597;28;20063;-74
2022/03/05 01:38:12;;;;;;;33.08;20.15;;;3.70;78.10;;;;;;5115224;28;20118;-75
2022/03/05 01:40:41;;;;;;;30.67;19.80;;;3.70;78.10;;;;;;5114024;28;20447;-74
2022/03/05 01:43:07;;;;;;;34.95;21.17;;;3.70;78.00;;;;;;5114899;28;20051;-74
2022/03/05 01:45:33;;;;;;;34.42;21.70;;;3.70;77.90;;;;;;5115368;27;20027;-75
2022/03/05 01:48:00;;;;;;;34.15;21.17;;;3.70;78.00;;;;;;5114363;28;20032;-74
2022/03/05 01:50:26;;;;;;;31.45;20.58;;;3.70;78.10;;;;;;5115378;28;20110;-75
2022/03/05 01:52:52;;;;;;;31.42;20.45;;;3.70;78.30;;;;;;5115431;28;20024;-75
2022/03/05 01:55:18;;;;;;;34.00;21.08;;;3.70;78.30;;;;;;5114724;28;20491;-74
2022/03/05 01:57:43;;;;;;;35.88;21.30;;;3.70;78.00;;;;;;5115380;28;20115;-74
2022/03/05 02:00:12;;;;;;;33.17;20.95;;;3.70;78.00;;;;;;5114658;28;20027;-74
2022/03/05 02:02:38;;;;;;;36.17;20.83;;;3.70;78.00;;;;;;5115223;28;20074;-74
2022/03/05 02:05:05;;;;;;;34.72;21.40;;;3.70;77.90;;;;;;5113747;28;20019;-74
2022/03/05 02:07:31;;;;;;;33.47;20.48;;;3.70;78.40;;;;;;5114924;28;20047;-74
2022/03/05 02:09:57;;;;;;;36.63;22.60;;;3.70;78.30;;;;;;5113475;28;20024;-74
2022/03/05 02:12:31;;;;;;;34.10;21.73;;;3.70;78.40;;;;;;5114344;28;20024;-74
2022/03/05 02:14:56;;;;;;;35.60;21.65;;;3.70;78.60;;;;;;5114978;28;20020;-74
2022/03/05 02:17:22;;;;;;;37.13;22.63;;;3.60;78.90;;;;;;5114255;28;20115;-74
2022/03/05 02:19:48;;;;;;;38.20;22.08;;;3.60;79.20;;;;;;5114886;28;20047;-75
2022/03/05 02:22:14;;;;;;;37.45;22.55;;;3.60;79.90;;;;;;5114179;28;20035;-74
2022/03/05 02:24:40;;;;;;;36.95;21.42;;;3.60;80.40;;;;;;5114662;28;20043;-74
2022/03/05 02:27:07;;;;;;;36.55;22.90;;;3.60;80.80;;;;;;5114202;28;20027;-75
2022/03/05 02:29:34;;;;;;;36.10;21.48;;;3.60;81.20;;;;;;5114598;27;20043;-75
2022/03/05 02:32:00;;;;;;;36.22;23.13;;;3.60;81.60;;;;;;5114608;28;20023;-75
2022/03/05 02:34:26;;;;;;;37.38;23.58;;;3.60;82.10;;;;;;5113981;28;20028;-75
2022/03/05 02:36:51;;;;;;;36.38;22.67;;;3.60;82.80;;;;;;5114566;28;20034;-75
2022/03/05 02:39:17;;;;;;;33.33;21.83;;;3.60;83.30;;;;;;5113807;28;20024;-75
2022/03/05 02:41:43;;;;;;;35.70;22.30;;;3.50;83.70;;;;;;5114498;28;20118;-75
2022/03/05 02:44:27;;;;;;;36.10;22.35;;;3.50;84.10;;;;;;5113734;28;20102;-75
2022/03/05 02:46:53;;;;;;;37.25;23.10;;;3.60;84.50;;;;;;5114202;28;20031;-75
2022/03/05 02:49:18;;;;;;;33.47;21.67;;;3.50;84.50;;;;;;5113511;28;20031;-74
2022/03/05 02:51:44;;;;;;;34.65;22.25;;;3.60;84.00;;;;;;5114150;28;20114;-75
2022/03/05 02:54:10;;;;;;;32.88;22.17;;;3.60;83.60;;;;;;5113501;28;20019;-74
2022/03/05 02:56:35;;;;;;;35.35;23.20;;;3.60;83.20;;;;;;5114233;28;20051;-75
2022/03/05 02:59:20;;;;;;;34.20;22.67;;;3.60;82.60;;;;;;5113853;28;20024;-75
2022/03/05 03:01:46;;;;;;;35.00;21.58;;;3.60;82.30;;;;;;5112925;28;20035;-75
2022/03/05 03:04:12;;;;;;;36.90;22.67;;;3.60;82.20;;;;;;5113283;28;20027;-75
2022/03/05 03:06:37;;;;;;;35.70;21.55;;;3.60;82.10;;;;;;5113939;28;20068;-75
2022/03/05 03:09:04;;;;;;;36.92;23.35;;;3.50;82.00;;;;;;5113837;28;20072;-74
2022/03/05 03:11:29;;;;;;;34.30;22.58;;;3.50;82.30;;;;;;5113210;28;20020;-75
2022/03/05 03:13:55;;;;;;;33.55;21.65;;;3.50;82.50;;;;;;5113735;28;20031;-74
2022/03/05 03:16:20;;;;;;;33.63;21.63;;;3.50;82.40;;;;;;5112060;28;20077;-74
2022/03/05 03:18:47;;;;;;;37.13;22.65;;;3.50;82.20;;;;;;5113670;28;20080;-74
2022/03/05 03:21:12;;;;;;;36.85;22.25;;;3.50;82.30;;;;;;5112638;28;20457;-73
2022/03/05 03:23:38;;;;;;;33.53;21.75;;;3.50;82.30;;;;;;5113806;28;20031;-74
2022/03/05 03:26:03;;;;;;;34.10;21.58;;;3.50;82.30;;;;;;5113290;28;20026;-73
2022/03/05 03:28:29;;;;;;;31.73;22.25;;;3.50;82.30;;;;;;5112499;28;20028;-73
2022/03/05 03:30:55;;;;;;;32.75;22.60;;;3.60;82.30;;;;;;5113284;28;20036;-73
2022/03/05 03:33:20;;;;;;;33.45;21.70;;;3.60;82.20;;;;;;5112784;28;20031;-74
2022/03/05 03:35:46;;;;;;;35.95;21.98;;;3.50;81.90;;;;;;5112546;28;20026;-73
2022/03/05 03:38:12;;;;;;;29.75;21.10;;;3.60;82.10;;;;;;5112638;28;20031;-75
2022/03/05 03:40:38;;;;;;;36.28;21.58;;;3.60;82.00;;;;;;5113615;28;20028;-75
2022/03/05 03:43:04;;;;;;;32.88;22.60;;;3.60;82.10;;;;;;5111999;28;20035;-75
2022/03/05 03:45:29;;;;;;;34.58;22.55;;;3.60;82.40;;;;;;5112428;28;20058;-75
2022/03/05 03:47:55;;;;;;;34.63;22.80;;;3.60;82.60;;;;;;5113090;28;20372;-74
2022/03/05 03:50:23;;;;;;;38.35;23.42;;;3.60;83.00;;;;;;5112328;28;20463;-75
2022/03/05 03:52:49;;;;;;;34.15;21.45;;;3.60;83.00;;;;;;5112233;28;20027;-75
2022/03/05 03:55:17;;;;;;;33.53;22.80;;;3.60;83.10;;;;;;5112434;28;20127;-74
2022/03/05 03:57:43;;;;;;;35.45;21.88;;;3.60;82.80;;;;;;5112874;28;20523;-74
2022/03/05 04:00:11;;;;;;;35.78;23.70;;;3.60;83.00;;;;;;5112101;28;20388;-74
2022/03/05 04:02:37;;;;;;;34.97;22.98;;;3.60;83.10;;;;;;5113109;28;20030;-74
2022/03/05 04:05:03;;;;;;;33.95;21.88;;;3.50;82.80;;;;;;5112901;28;20027;-75
2022/03/05 04:10:13;;;;;;;33.42;21.80;;;3.50;83.00;;;;;;5112069;28;20034;-75
2022/03/05 04:12:38;;;;;;;34.25;22.92;;;3.50;83.00;;;;;;5112863;28;20106;-74
2022/03/05 04:15:05;;;;;;;35.60;23.17;;;3.50;83.30;;;;;;5112915;28;20403;-75
2022/03/05 04:17:31;;;;;;;34.55;22.52;;;3.50;82.90;;;;;;5111901;28;20028;-74
2022/03/05 04:19:57;;;;;;;40.65;22.90;;;3.50;82.70;;;;;;5112729;28;20023;-74
2022/03/05 04:22:22;;;;;;;33.63;21.50;;;3.50;82.60;;;;;;5111873;28;20099;-74
2022/03/05 04:24:48;;;;;;;35.30;22.77;;;3.50;82.60;;;;;;5112486;28;20456;-74
2022/03/05 04:27:33;;;;;;;32.38;23.08;;;3.40;83.10;;;;;;5113099;28;20035;-75
2022/03/05 04:29:58;;;;;;;33.03;21.73;;;3.40;83.50;;;;;;5116861;28;20491;-75
2022/03/05 04:32:24;;;;;;;34.42;22.17;;;3.40;83.40;;;;;;5116036;28;20024;-74
2022/03/05 04:34:50;;;;;;;35.50;22.30;;;3.40;83.50;;;;;;5116855;28;20031;-75
2022/03/05 04:37:15;;;;;;;35.97;22.90;;;3.40;83.40;;;;;;5116174;28;20031;-74
2022/03/05 04:42:25;;;;;;;32.03;21.60;;;3.40;83.20;;;;;;5115917;28;20352;-74
2022/03/05 04:44:53;;;;;;;36.58;23.52;;;3.40;83.00;;;;;;5116701;28;20019;-75
2022/03/05 04:47:19;;;;;;;36.10;22.75;;;3.40;83.20;;;;;;5115949;28;20067;-75
2022/03/05 04:49:45;;;;;;;32.78;23.52;;;3.40;83.20;;;;;;5116310;28;20104;-75
2022/03/05 04:52:10;;;;;;;35.25;23.55;;;3.40;83.20;;;;;;5115270;28;20091;-75
2022/03/05 04:54:36;;;;;;;41.13;24.65;;;3.40;83.20;;;;;;5115685;28;20047;-74
2022/03/05 04:57:03;;;;;;;36.20;23.92;;;3.40;83.10;;;;;;5115217;28;20422;-73
2022/03/05 04:59:29;;;;;;;35.70;23.50;;;3.40;83.20;;;;;;5118664;27;20040;-73
2022/03/05 05:02:13;;;;;;;37.15;22.80;;;3.40;83.50;;;;;;5130207;27;20368;-73
2022/03/05 05:04:39;;;;;;;37.17;23.63;;;3.40;83.50;;;;;;5116674;27;20058;-74
2022/03/05 05:07:04;;;;;;;34.33;23.08;;;3.40;83.30;;;;;;5122678;27;20063;-75
2022/03/05 05:09:30;;;;;;;38.53;23.95;;;3.40;83.20;;;;;;5125589;27;20028;-75
2022/03/05 05:11:57;;;;;;;36.65;23.98;;;3.40;83.20;;;;;;5129947;27;20030;-74
2022/03/05 05:14:22;;;;;;;35.05;23.85;;;3.40;83.70;;;;;;5118782;27;20077;-75
2022/03/05 05:16:48;;;;;;;35.78;23.60;;;3.40;83.80;;;;;;5127048;27;20028;-74
2022/03/05 05:19:29;;;;;;;37.28;23.48;;;3.40;83.60;;;;;;5124279;27;20046;-76
2022/03/05 05:22:01;;;;;;;36.63;23.85;;;3.40;83.60;;;;;;5121139;27;20019;-74
2022/03/05 05:24:29;;;;;;;36.00;22.73;;;3.40;83.30;;;;;;5115131;28;20028;-74
2022/03/05 05:26:56;;;;;;;35.22;23.00;;;3.40;83.70;;;;;;5115395;28;20030;-74
2022/03/05 05:29:22;;;;;;;36.75;23.40;;;3.40;83.70;;;;;;5114833;28;20027;-74
2022/03/05 05:31:48;;;;;;;33.40;22.80;;;3.30;83.70;;;;;;5115365;28;20383;-74
2022/03/05 05:34:15;;;;;;;33.58;23.20;;;3.40;83.30;;;;;;5115396;28;20117;-74
2022/03/05 05:36:41;;;;;;;36.00;23.25;;;3.30;83.70;;;;;;5115614;28;20059;-73
2022/03/05 05:39:08;;;;;;;38.55;23.90;;;3.30;83.70;;;;;;5113973;28;20078;-74
2022/03/05 05:41:35;;;;;;;32.20;22.20;;;3.30;83.50;;;;;;5114891;28;20030;-74
2022/03/05 05:44:02;;;;;;;35.17;23.20;;;3.30;83.70;;;;;;5114098;28;20438;-74
2022/03/05 05:46:28;;;;;;;34.20;22.55;;;3.30;83.70;;;;;;5114204;28;20032;-74
2022/03/05 05:48:55;;;;;;;32.55;22.45;;;3.30;83.60;;;;;;5115358;28;20027;-75
2022/03/05 05:51:22;;;;;;;37.42;23.85;;;3.30;83.50;;;;;;5114541;28;20361;-75
2022/03/05 05:54:07;;;;;;;35.45;22.88;;;3.30;83.70;;;;;;5115569;28;20038;-74
2022/03/05 05:56:34;;;;;;;34.95;22.70;;;3.30;83.90;;;;;;5114580;28;20039;-75
2022/03/05 05:58:59;;;;;;;35.20;22.50;;;3.30;84.00;;;;;;5114802;27;20028;-75
2022/03/05 06:01:26;;;;;;;33.97;22.80;;;3.30;83.70;;;;;;5114309;28;20368;-75
2022/03/05 06:03:53;;;;;;;31.80;22.38;;;3.30;83.80;;;;;;5115025;27;20028;-75
2022/03/05 06:06:20;;;;;;;32.65;21.83;;;3.40;84.20;;;;;;5113960;28;20024;-75
2022/03/05 06:08:46;;;;;;;31.50;21.88;;;3.40;84.00;;;;;;5114860;28;20035;-74
2022/03/05 06:11:12;;;;;;;31.45;21.38;;;3.40;84.60;;;;;;5114804;28;20093;-74
2022/03/05 06:13:38;;;;;;;33.83;22.58;;;3.40;83.50;;;;;;5114200;28;20032;-79
2022/03/05 06:16:04;;;;;;;35.25;21.73;;;3.40;83.10;;;;;;5114413;28;20024;-78
2022/03/05 06:18:29;;;;;;;35.58;22.55;;;3.50;83.10;;;;;;5114578;28;20069;-73
2022/03/05 06:20:55;;;;;;;36.50;23.63;;;3.40;83.00;;;;;;5114603;28;20028;-73
2022/03/05 06:23:23;;;;;;;32.83;21.83;;;3.50;83.00;;;;;;5113872;28;20110;-74
2022/03/05 06:26:08;;;;;;;31.98;22.02;;;3.50;82.90;;;;;;5114216;27;20365;-72
2022/03/05 06:28:34;;;;;;;35.92;22.85;;;3.50;82.30;;;;;;5113784;28;20333;-71
2022/03/05 06:31:00;;;;;;;29.80;21.48;;;3.50;82.50;;;;;;5114152;28;20034;-71
2022/03/05 06:33:26;;;;;;;33.75;22.40;;;3.50;82.70;;;;;;5113393;28;20381;-72
2022/03/05 06:35:52;;;;;;;31.20;22.13;;;3.60;82.60;;;;;;5113924;28;20024;-73
2022/03/05 06:38:18;;;;;;;34.28;23.67;;;3.60;82.40;;;;;;5114117;28;20031;-73
2022/03/05 06:40:44;;;;;;;34.13;22.25;;;3.60;82.30;;;;;;5114649;28;20028;-73
2022/03/05 06:43:11;;;;;;;33.15;21.75;;;3.60;81.90;;;;;;5114810;28;20028;-73
2022/03/05 06:45:36;;;;;;;35.53;21.58;;;3.70;81.80;;;;;;5113566;28;20027;-72
2022/03/05 06:48:03;;;;;;;30.30;21.88;;;3.70;81.50;;;;;;5113927;28;20019;-73
2022/03/05 06:50:29;;;;;;;32.42;21.58;;;3.70;81.30;;;;;;5113101;28;20496;-72
2022/03/05 06:52:55;;;;;;;34.67;21.17;;;3.70;80.70;;;;;;5113913;28;20020;-73
2022/03/05 06:55:23;;;;;;;30.92;22.08;;;3.80;80.50;;;;;;5116645;27;20376;-74
2022/03/05 06:57:49;;;;;;;32.50;22.10;;;3.80;80.50;;;;;;5116258;27;20139;-74
2022/03/05 07:00:15;;;;;;;30.02;20.63;;;3.80;80.40;;;;;;5115966;27;20024;-73
2022/03/05 07:02:42;;;;;;;32.40;22.02;;;3.80;80.40;;;;;;5113139;27;20038;-73
2022/03/05 07:05:09;;;;;;;31.63;21.77;;;3.80;80.10;;;;;;5116589;27;20023;-72
2022/03/05 07:07:34;;;;;;;31.95;20.48;;;3.90;79.70;;;;;;5113551;28;20035;-73
2022/03/05 07:10:00;;;;;;;30.20;21.60;;;3.90;79.30;;;;;;5113458;28;20057;-73
2022/03/05 07:12:26;;;;;;;32.22;20.65;;;3.90;79.30;;;;;;5112947;28;20089;-74
2022/03/05 07:14:51;;;;;;;30.80;21.08;;;4.00;79.40;;;;;;5113469;28;20026;-74
2022/03/05 07:17:18;;;;;;;30.52;21.30;;;4.00;79.40;;;;;;5113463;28;20119;-73
2022/03/05 07:19:44;;;;;;;34.47;22.42;;;4.00;79.10;;;;;;5112982;28;20085;-74
2022/03/05 07:22:10;;;;;;;31.30;21.30;;;4.10;78.90;;;;;;5111957;28;20028;-74
2022/03/05 07:24:36;;;;;;;29.33;20.73;;;4.20;78.90;;;;;;5112693;28;20028;-73
2022/03/05 07:27:02;;;;;;;33.83;21.30;;;4.20;78.90;;;;;;5113036;28;20027;-72
2022/03/05 07:29:28;;;;;;;28.88;20.85;;;4.30;78.10;;;;;;5112628;28;20099;-73
2022/03/05 07:31:54;;;;;;;34.45;20.95;;;4.40;78.40;;;;;;5112914;28;20066;-72
2022/03/05 07:34:19;;;;;;;29.25;20.10;;;4.50;77.70;;;;;;5113079;27;20479;-72
2022/03/05 07:36:45;;;;;;;31.13;20.25;;;4.60;77.10;;;;;;5112435;28;20019;-73
2022/03/05 07:39:11;;;;;;;27.48;19.70;;;4.70;76.60;;;;;;5113029;28;20031;-73
2022/03/05 07:41:37;;;;;;;26.42;18.75;;;4.80;76.60;;;;;;5112452;28;20095;-74
2022/03/05 07:44:04;;;;;;;29.35;19.73;;;4.90;75.30;;;;;;5112624;28;20031;-74
2022/03/05 07:46:31;;;;;;;26.75;19.48;;;5.00;74.80;;;;;;5111561;28;20034;-73
2022/03/05 07:48:57;;;;;;;25.77;18.58;;;5.10;74.00;;;;;;5112975;28;20134;-73
2022/03/05 07:51:23;;;;;;;27.15;19.25;;;5.10;73.20;;;;;;5112421;28;20416;-74
2022/03/05 07:53:48;;;;;;;26.77;19.05;;;5.20;71.60;;;;;;5112791;28;20058;-72
2022/03/05 07:56:14;;;;;;;25.75;18.77;;;5.30;71.20;;;;;;5112928;28;20158;-74
2022/03/05 07:58:40;;;;;;;32.30;20.50;;;5.30;70.50;;;;;;5113664;27;20380;-73
2022/03/05 08:01:05;;;;;;;29.10;18.98;;;5.40;70.60;;;;;;5115029;28;20027;-73
2022/03/05 08:03:31;;;;;;;24.35;18.98;;;5.50;69.70;;;;;;5124070;27;20027;-75
2022/03/05 08:05:56;;;;;;;28.63;19.35;;;5.60;69.10;;;;;;5133026;27;20030;-73
2022/03/05 08:08:22;;;;;;;25.58;18.05;;;5.60;68.00;;;;;;5133127;27;20027;-73
2022/03/05 08:10:48;;;;;;;26.10;18.58;;;5.70;68.40;;;;;;5132534;27;20038;-72
2022/03/05 08:13:13;;;;;;;27.13;19.10;;;5.80;68.50;;;;;;5133445;27;20416;-72
2022/03/05 08:15:39;;;;;;;23.27;18.15;;;5.80;68.40;;;;;;5111910;27;20357;-73
2022/03/05 08:18:05;;;;;;;25.45;18.27;;;5.90;67.40;;;;;;5112468;28;20103;-73
2022/03/05 08:20:32;;;;;;;25.45;18.42;;;6.00;67.00;;;;;;5111692;28;20035;-73
2022/03/05 08:22:58;;;;;;;26.80;19.20;;;6.10;66.70;;;;;;5112528;28;20080;-74
2022/03/05 08:25:25;;;;;;;25.77;18.35;;;6.20;66.10;;;;;;5112283;28;20024;-73
2022/03/05 08:27:51;;;;;;;27.50;18.98;;;6.30;65.80;;;;;;5112385;28;20034;-74
2022/03/05 08:30:17;;;;;;;25.08;18.45;;;6.50;66.00;;;;;;5111697;28;20028;-73
2022/03/05 08:32:43;;;;;;;24.08;18.48;;;6.70;65.50;;;;;;5111798;28;20072;-74
2022/03/05 08:35:10;;;;;;;25.05;18.95;;;6.80;64.10;;;;;;5112328;28;20038;-73
2022/03/05 08:37:36;;;;;;;22.17;17.00;;;6.90;64.00;;;;;;5111808;28;20030;-73
2022/03/05 08:40:04;;;;;;;22.45;17.77;;;7.10;63.60;;;;;;5110887;28;20350;-74
2022/03/05 08:42:30;;;;;;;24.83;19.13;;;7.20;63.10;;;;;;5111256;28;20092;-74
2022/03/05 08:44:56;;;;;;;25.00;18.83;;;7.30;62.30;;;;;;5112192;28;20028;-74
2022/03/05 08:47:21;;;;;;;27.23;18.98;;;7.30;61.60;;;;;;5111856;28;20039;-73
2022/03/05 08:49:47;;;;;;;23.58;17.63;;;7.30;62.20;;;;;;5110290;28;20036;-74
2022/03/05 08:52:12;;;;;;;24.92;18.65;;;7.40;62.30;;;;;;5111733;28;20024;-73
2022/03/05 08:54:38;;;;;;;27.65;20.08;;;7.50;62.30;;;;;;5110031;28;20063;-73
2022/03/05 08:57:05;;;;;;;27.50;19.23;;;7.60;62.30;;;;;;5111760;28;20040;-73
2022/03/05 08:59:30;;;;;;;27.67;19.35;;;7.70;62.10;;;;;;5110077;28;20028;-73
2022/03/05 09:01:56;;;;;;;27.05;19.60;;;7.80;61.90;;;;;;5112056;28;20027;-72
2022/03/05 09:04:22;;;;;;;28.58;20.27;;;7.90;60.80;;;;;;5112291;28;20020;-72
2022/03/05 09:06:48;;;;;;;28.27;21.02;;;8.00;60.70;;;;;;5111251;28;20039;-72
2022/03/05 09:09:13;;;;;;;26.23;19.85;;;8.10;59.80;;;;;;5112339;28;20039;-72
2022/03/05 09:11:39;;;;;;;29.33;21.17;;;8.20;59.40;;;;;;5111522;28;20026;-73
2022/03/05 09:14:06;;;;;;;31.95;20.77;;;8.20;58.90;;;;;;5114360;28;20028;-72
2022/03/05 09:16:32;;;;;;;28.77;20.63;;;8.20;59.00;;;;;;5115478;28;20474;-74
2022/03/05 09:18:58;;;;;;;26.08;20.17;;;8.20;59.60;;;;;;5115977;28;20456;-73
2022/03/05 09:21:23;;;;;;;26.98;19.23;;;8.30;59.50;;;;;;5115860;28;20039;-74
2022/03/05 09:23:49;;;;;;;27.17;20.48;;;8.40;59.00;;;;;;5115278;28;20031;-75
2022/03/05 09:26:15;;;;;;;27.48;19.23;;;8.40;59.10;;;;;;5115711;28;20054;-73
2022/03/05 09:28:41;;;;;;;30.73;20.83;;;8.50;58.40;;;;;;5115130;28;20028;-74
2022/03/05 09:31:07;;;;;;;25.55;19.30;;;8.60;58.70;;;;;;5115821;28;20495;-75
2022/03/05 09:33:32;;;;;;;25.52;20.15;;;8.70;58.40;;;;;;5114955;28;20030;-73
2022/03/05 09:35:58;;;;;;;26.20;20.15;;;8.80;57.70;;;;;;5115287;28;20030;-72
2022/03/05 09:38:24;;;;;;;27.40;19.90;;;8.80;56.50;;;;;;5113946;28;20066;-74
2022/03/05 09:40:50;;;;;;;26.27;19.45;;;8.90;57.00;;;;;;5114702;28;20241;-74
2022/03/05 09:43:19;;;;;;;25.05;19.48;;;9.00;57.20;;;;;;5114530;28;20019;-73
2022/03/05 09:45:45;;;;;;;25.73;18.90;;;9.10;55.80;;;;;;5114697;28;20044;-73
2022/03/05 09:48:20;;;;;;;28.40;20.63;;;9.00;54.80;;;;;;5115070;28;20028;-73
2022/03/05 09:50:45;;;;;;;29.42;19.10;;;8.90;54.70;;;;;;5114814;28;20031;-74
2022/03/05 09:53:30;;;;;;;30.10;21.05;;;8.80;55.10;;;;;;5115345;28;20024;-74
2022/03/05 09:55:56;;;;;;;27.33;20.50;;;8.70;55.10;;;;;;5113896;28;20123;-73
2022/03/05 09:58:22;;;;;;;29.35;22.00;;;8.60;55.40;;;;;;5114657;28;20039;-73
2022/03/05 10:00:47;;;;;;;30.83;22.17;;;8.50;56.10;;;;;;5113969;28;20023;-74
2022/03/05 10:03:14;;;;;;;28.75;21.80;;;8.40;56.90;;;;;;5114500;28;20020;-73
2022/03/05 10:05:40;;;;;;;29.40;21.02;;;8.30;57.00;;;;;;5113885;28;20032;-73
2022/03/05 10:08:20;;;;;;;28.45;20.15;;;8.30;57.60;;;;;;5114642;28;20491;-74
2022/03/05 10:10:46;;;;;;;27.65;20.17;;;8.30;56.70;;;;;;5113827;28;20055;-74
2022/03/05 10:13:24;;;;;;;32.42;21.88;;;8.30;56.40;;;;;;5114554;28;20020;-74
2022/03/05 10:15:57;;;;;;;30.60;22.08;;;8.20;56.70;;;;;;5113880;28;20020;-73
2022/03/05 10:18:26;;;;;;;28.88;21.52;;;8.20;56.80;;;;;;5114428;28;20059;-72
2022/03/05 10:20:52;;;;;;;29.15;22.35;;;8.20;57.70;;;;;;5113659;28;20102;-73
2022/03/05 10:23:19;;;;;;;29.25;21.95;;;8.20;57.40;;;;;;5114511;28;20156;-73
2022/03/05 10:25:53;;;;;;;32.03;22.85;;;8.20;57.30;;;;;;5113665;28;20114;-73
2022/03/05 10:28:23;;;;;;;30.33;22.13;;;8.20;57.20;;;;;;5114012;28;20493;-73
2022/03/05 10:30:53;;;;;;;30.67;21.88;;;8.10;56.90;;;;;;5113912;28;20046;-73
2022/03/05 10:33:34;;;;;;;31.13;21.60;;;8.00;57.00;;;;;;5114573;28;20456;-73
2022/03/05 10:36:06;;;;;;;28.42;21.77;;;7.90;57.00;;;;;;5114706;28;20110;-72
2022/03/05 10:38:43;;;;;;;;;;;7.90;57.60;;;;;;5114724;28;20039;-74
2022/03/05 10:41:09;;;;;;;31.40;21.63;;;7.80;57.30;;;;;;5114147;28;20064;-73
2022/03/05 10:43:35;;;;;;;29.90;20.42;;;7.90;58.20;;;;;;5113596;28;20500;-75
2022/03/05 10:46:00;;;;;;;28.75;20.42;;;8.00;57.90;;;;;;5114364;28;20023;-73
2022/03/05 10:48:31;;;;;;;27.77;19.85;;;8.00;56.80;;;;;;5113899;28;20081;-73
2022/03/05 10:51:00;;;;;;;27.98;19.60;;;8.10;56.10;;;;;;5113464;28;20039;-73
2022/03/05 10:53:35;;;;;;;26.38;19.48;;;8.10;55.90;;;;;;5114034;28;20130;-73
2022/03/05 10:56:23;;;;;;;27.80;19.95;;;8.20;55.70;;;;;;5113732;28;20101;-74
2022/03/05 10:59:16;;;;;;;27.58;20.40;;;8.10;55.30;;;;;;5112008;28;20392;-74
2022/03/05 11:01:43;;;;;;;25.70;17.83;;;8.10;55.30;;;;;;5110469;27;20445;-73
2022/03/05 11:04:11;;;;;;;24.35;18.45;;;8.10;54.70;;;;;;5113881;28;20472;-73
2022/03/05 11:06:39;;;;;;;24.70;18.25;;;8.00;54.00;;;;;;5113157;28;20452;-76
2022/03/05 11:09:10;;;;;;;26.02;19.67;;;7.90;54.00;;;;;;5113743;28;20034;-73
2022/03/05 11:11:42;;;;;;;29.40;20.02;;;7.80;54.80;;;;;;5113593;28;20053;-74
2022/03/05 11:14:13;;;;;;;26.85;20.02;;;7.70;55.20;;;;;;5112369;28;20034;-75
2022/03/05 11:16:39;;;;;;;24.00;19.00;;;7.60;55.80;;;;;;5113035;28;20020;-75
2022/03/05 11:19:04;;;;;;;27.83;18.75;;;7.60;55.40;;;;;;5113210;28;20081;-74
2022/03/05 11:21:30;;;;;;;25.00;17.60;;;7.50;55.40;;;;;;5113426;28;20032;-74
2022/03/05 11:23:57;;;;;;;22.23;16.42;;;7.40;54.90;;;;;;5112423;28;20059;-74
2022/03/05 11:26:24;;;;;;;22.52;16.67;;;7.40;54.40;;;;;;5113167;28;20023;-74
2022/03/05 11:28:52;;;;;;;26.77;17.83;;;7.30;54.30;;;;;;5112685;28;20087;-75
2022/03/05 11:31:24;;;;;;;25.38;17.75;;;7.30;54.50;;;;;;5113211;28;20059;-74
2022/03/05 11:33:51;;;;;;;23.75;17.73;;;7.20;54.40;;;;;;5112533;28;20020;-74
2022/03/05 11:36:29;;;;;;;27.52;19.17;;;7.10;53.90;;;;;;5112730;28;20061;-74
2022/03/05 11:39:16;;;;;;;25.92;18.42;;;7.10;54.20;;;;;;5112338;28;20031;-74
2022/03/05 11:42:08;;;;;;;27.20;17.88;;;7.00;54.60;;;;;;5110584;28;20449;-75
2022/03/05 11:44:37;;;;;;;26.90;17.85;;;7.00;54.70;;;;;;5112708;28;20028;-74
2022/03/05 11:47:18;;;;;;;25.05;17.77;;;7.00;54.60;;;;;;5112244;28;20028;-74
2022/03/05 11:50:06;;;;;;;26.98;18.02;;;6.90;54.50;;;;;;5112137;28;20100;-75
2022/03/05 11:52:38;;;;;;;26.30;17.67;;;6.90;54.60;;;;;;5112974;28;20072;-74
2022/03/05 11:55:15;;;;;;;25.92;17.05;;;6.90;54.90;;;;;;5111947;28;20051;-74
2022/03/05 11:57:52;;;;;;;24.30;16.08;;;6.90;54.70;;;;;;5110819;28;20030;-72
2022/03/05 12:00:20;;;;;;;32.88;18.05;;;6.90;54.50;;;;;;5112573;28;20035;-74
2022/03/05 12:02:48;;;;;;;29.45;17.27;;;6.90;53.90;;;;;;5111991;28;20465;-74
2022/03/05 12:05:38;;;;;;;26.13;17.38;;;6.90;54.00;;;;;;5112617;28;20029;-74
2022/03/05 12:08:05;;;;;;;26.20;16.63;;;6.90;54.00;;;;;;5110495;28;20393;-74
2022/03/05 12:10:49;;;;;;;28.33;16.77;;;6.90;53.30;;;;;;5111287;28;20388;-74
2022/03/05 12:13:15;;;;;;;36.70;17.20;;;6.80;53.00;;;;;;5112681;27;20073;-73
2022/03/05 12:15:45;;;;;;;28.27;16.90;;;6.80;53.20;;;;;;5111957;28;20456;-75
2022/03/05 12:18:14;;;;;;;24.15;16.38;;;6.80;53.80;;;;;;5112473;28;20055;-74
2022/03/05 12:20:42;;;;;;;22.90;15.80;;;6.80;53.60;;;;;;5112401;28;20023;-74
2022/03/05 12:23:19;;;;;;;28.70;15.15;;;6.80;53.10;;;;;;5112408;28;20024;-74
2022/03/05 12:25:47;;;;;;;25.23;14.68;;;6.80;53.30;;;;;;5110549;28;20027;-74
2022/03/05 12:28:19;;;;;;;25.30;13.98;;;6.80;52.30;;;;;;5112144;28;20080;-74
2022/03/05 12:30:45;;;;;;;;;;;6.80;52.30;;;;;;5112046;28;20119;-74
2022/03/05 12:33:13;;;;;;;23.35;13.63;;;6.80;52.00;;;;;;5112157;28;19949;-73
2022/03/05 12:35:40;;;;;;;21.52;13.63;;;6.80;51.40;;;;;;5107178;28;20063;-74
2022/03/05 12:38:06;;;;;;;24.52;13.75;;;6.90;51.60;;;;;;5123833;28;20081;-74
2022/03/05 12:40:33;;;;;;;23.02;14.00;;;6.90;51.30;;;;;;5091740;28;20112;-74
2022/03/05 12:43:00;;;;;;;21.45;14.18;;;6.90;51.10;;;;;;5099790;28;20035;-73
2022/03/05 12:45:29;;;;;;;23.80;14.68;;;6.90;50.90;;;;;;5112181;28;20072;-74